sensor_id;sensor_type;location;lat;lon;timestamp;temperature;humidity
12452;DHT22;6291;48.924;12.204;2023-07-20T00:00:52;19.70;99.90
12452;DHT22;6291;48.924;12.204;2023-07-20T00:05:55;19.60;99.90
12452;DHT22;6291;48.924;12.204;2023-07-20T00:10:59;19.50;99.90
12452;DHT22;6291;48.924;12.204;2023-07-20T00:16:04;19.50;99.90
12452;DHT22;6291;48.924;12.204;2023-07-20T00:21:07;19.40;99.90
12452;DHT22;6291;48.924;12.204;2023-07-20T00:26:11;19.40;99.90
12452;DHT22;6291;48.924;12.204;2023-07-20T00:31:16;19.30;99.90
12452;DHT22;6291;48.924;12.204;2023-07-20T00:36:19;19.30;99.90
12452;DHT22;6291;48.924;12.204;2023-07-20T00:41:23;19.40;99.90
12452;DHT22;6291;48.924;12.204;2023-07-20T00:46:28;19.40;99.90
12452;DHT22;6291;48.924;12.204;2023-07-20T00:51:31;19.40;99.90
12452;DHT22;6291;48.924;12.204;2023-07-20T00:56:36;19.20;99.90
12452;DHT22;6291;48.924;12.204;2023-07-20T01:01:42;18.90;99.90
12452;DHT22;6291;48.924;12.204;2023-07-20T01:06:50;18.70;99.90
12452;DHT22;6291;48.924;12.204;2023-07-20T01:12:02;18.70;99.90
12452;DHT22;6291;48.924;12.204;2023-07-20T01:17:09;18.80;99.90
12452;DHT22;6291;48.924;12.204;2023-07-20T01:22:25;18.60;99.90
12452;DHT22;6291;48.924;12.204;2023-07-20T01:33:16;18.20;99.90
12452;DHT22;6291;48.924;12.204;2023-07-20T01:38:20;18.20;99.90
12452;DHT22;6291;48.924;12.204;2023-07-20T01:43:24;18.00;99.90
12452;DHT22;6291;48.924;12.204;2023-07-20T01:48:29;17.90;99.90
12452;DHT22;6291;48.924;12.204;2023-07-20T01:53:34;18.00;99.90
12452;DHT22;6291;48.924;12.204;2023-07-20T01:58:38;17.90;99.90
12452;DHT22;6291;48.924;12.204;2023-07-20T02:03:42;17.80;99.90
12452;DHT22;6291;48.924;12.204;2023-07-20T02:08:46;17.80;99.90
12452;DHT22;6291;48.924;12.204;2023-07-20T02:13:49;17.70;99.90
12452;DHT22;6291;48.924;12.204;2023-07-20T02:18:54;17.70;99.90
12452;DHT22;6291;48.924;12.204;2023-07-20T02:23:59;17.80;99.90
12452;DHT22;6291;48.924;12.204;2023-07-20T02:29:02;17.70;99.90
12452;DHT22;6291;48.924;12.204;2023-07-20T02:34:08;17.70;99.90
12452;DHT22;6291;48.924;12.204;2023-07-20T02:39:11;17.60;99.90
12452;DHT22;6291;48.924;12.204;2023-07-20T02:44:14;17.60;99.90
12452;DHT22;6291;48.924;12.204;2023-07-20T02:49:19;17.60;99.90
12452;DHT22;6291;48.924;12.204;2023-07-20T02:54:22;17.50;99.90
12452;DHT22;6291;48.924;12.204;2023-07-20T02:59:26;17.40;99.90
12452;DHT22;6291;48.924;12.204;2023-07-20T03:04:31;17.40;1.00
12452;DHT22;6291;48.924;12.204;2023-07-20T03:09:34;17.40;1.00
12452;DHT22;6291;48.924;12.204;2023-07-20T03:14:37;17.40;1.00
12452;DHT22;6291;48.924;12.204;2023-07-20T03:19:42;17.50;1.00
12452;DHT22;6291;48.924;12.204;2023-07-20T03:24:45;17.50;1.00
12452;DHT22;6291;48.924;12.204;2023-07-20T03:29:49;17.50;1.00
12452;DHT22;6291;48.924;12.204;2023-07-20T03:34:54;17.50;1.00
12452;DHT22;6291;48.924;12.204;2023-07-20T03:39:57;17.60;1.00
12452;DHT22;6291;48.924;12.204;2023-07-20T03:45:00;17.50;1.00
12452;DHT22;6291;48.924;12.204;2023-07-20T03:50:08;17.60;1.00
12452;DHT22;6291;48.924;12.204;2023-07-20T03:55:12;17.60;1.00
12452;DHT22;6291;48.924;12.204;2023-07-20T04:00:16;17.50;1.00
12452;DHT22;6291;48.924;12.204;2023-07-20T04:05:21;17.40;1.00
12452;DHT22;6291;48.924;12.204;2023-07-20T04:10:24;17.50;1.00
12452;DHT22;6291;48.924;12.204;2023-07-20T04:15:28;17.50;1.00
12452;DHT22;6291;48.924;12.204;2023-07-20T04:20:33;17.70;99.90
12452;DHT22;6291;48.924;12.204;2023-07-20T04:25:38;17.70;99.90
12452;DHT22;6291;48.924;12.204;2023-07-20T04:30:43;17.60;99.90
12452;DHT22;6291;48.924;12.204;2023-07-20T04:35:51;17.70;99.90
12452;DHT22;6291;48.924;12.204;2023-07-20T04:40:59;19.50;99.90
12452;DHT22;6291;48.924;12.204;2023-07-20T04:46:05;17.70;99.90
12452;DHT22;6291;48.924;12.204;2023-07-20T04:51:12;20.00;99.90
12452;DHT22;6291;48.924;12.204;2023-07-20T04:56:15;17.90;99.90
12452;DHT22;6291;48.924;12.204;2023-07-20T05:01:19;18.00;99.90
12452;DHT22;6291;48.924;12.204;2023-07-20T05:06:24;18.00;99.90
12452;DHT22;6291;48.924;12.204;2023-07-20T05:11:28;18.10;99.90
12452;DHT22;6291;48.924;12.204;2023-07-20T05:16:31;18.20;99.90
12452;DHT22;6291;48.924;12.204;2023-07-20T05:21:40;18.30;99.90
12452;DHT22;6291;48.924;12.204;2023-07-20T05:26:44;18.40;99.90
12452;DHT22;6291;48.924;12.204;2023-07-20T05:31:47;18.50;99.90
12452;DHT22;6291;48.924;12.204;2023-07-20T05:36:52;18.60;99.90
12452;DHT22;6291;48.924;12.204;2023-07-20T05:41:55;18.50;99.90
12452;DHT22;6291;48.924;12.204;2023-07-20T05:46:59;18.50;99.90
12452;DHT22;6291;48.924;12.204;2023-07-20T05:52:04;18.60;99.90
12452;DHT22;6291;48.924;12.204;2023-07-20T05:57:08;18.70;99.90
12452;DHT22;6291;48.924;12.204;2023-07-20T06:02:11;18.90;99.90
12452;DHT22;6291;48.924;12.204;2023-07-20T06:07:16;18.90;99.90
12452;DHT22;6291;48.924;12.204;2023-07-20T06:12:19;18.80;99.90
12452;DHT22;6291;48.924;12.204;2023-07-20T06:17:22;19.10;99.90
12452;DHT22;6291;48.924;12.204;2023-07-20T06:22:27;19.10;99.90
12452;DHT22;6291;48.924;12.204;2023-07-20T06:27:31;19.60;99.90
12452;DHT22;6291;48.924;12.204;2023-07-20T06:32:34;19.40;99.90
12452;DHT22;6291;48.924;12.204;2023-07-20T06:37:39;19.20;99.90
12452;DHT22;6291;48.924;12.204;2023-07-20T06:42:43;19.30;99.90
12452;DHT22;6291;48.924;12.204;2023-07-20T06:47:49;19.40;99.90
12452;DHT22;6291;48.924;12.204;2023-07-20T06:52:54;19.80;99.90
12452;DHT22;6291;48.924;12.204;2023-07-20T06:58:00;20.40;99.90
12452;DHT22;6291;48.924;12.204;2023-07-20T07:03:03;20.80;99.90
12452;DHT22;6291;48.924;12.204;2023-07-20T07:08:07;20.10;99.90
12452;DHT22;6291;48.924;12.204;2023-07-20T07:13:11;20.20;99.90
12452;DHT22;6291;48.924;12.204;2023-07-20T07:18:14;21.00;99.90
12452;DHT22;6291;48.924;12.204;2023-07-20T07:23:19;20.40;99.90
12452;DHT22;6291;48.924;12.204;2023-07-20T07:28:23;20.90;99.90
12452;DHT22;6291;48.924;12.204;2023-07-20T07:33:26;21.30;99.90
12452;DHT22;6291;48.924;12.204;2023-07-20T07:38:31;21.10;99.90
12452;DHT22;6291;48.924;12.204;2023-07-20T07:43:54;20.80;99.90
12452;DHT22;6291;48.924;12.204;2023-07-20T07:48:57;21.40;99.90
12452;DHT22;6291;48.924;12.204;2023-07-20T07:54:02;21.00;99.90
12452;DHT22;6291;48.924;12.204;2023-07-20T07:59:06;21.10;99.90
12452;DHT22;6291;48.924;12.204;2023-07-20T08:04:09;21.90;99.90
12452;DHT22;6291;48.924;12.204;2023-07-20T08:09:14;21.30;99.90
12452;DHT22;6291;48.924;12.204;2023-07-20T08:14:17;21.60;99.90
12452;DHT22;6291;48.924;12.204;2023-07-20T08:19:21;23.20;99.90
12452;DHT22;6291;48.924;12.204;2023-07-20T08:24:27;22.30;99.90
12452;DHT22;6291;48.924;12.204;2023-07-20T08:29:30;22.20;99.90
12452;DHT22;6291;48.924;12.204;2023-07-20T08:34:34;22.10;99.90
12452;DHT22;6291;48.924;12.204;2023-07-20T08:39:39;22.80;99.90
12452;DHT22;6291;48.924;12.204;2023-07-20T08:44:43;23.00;99.90
12452;DHT22;6291;48.924;12.204;2023-07-20T08:49:48;23.60;99.90
12452;DHT22;6291;48.924;12.204;2023-07-20T08:54:53;22.80;99.90
12452;DHT22;6291;48.924;12.204;2023-07-20T08:59:57;23.00;99.90
12452;DHT22;6291;48.924;12.204;2023-07-20T09:05:01;23.00;99.90
12452;DHT22;6291;48.924;12.204;2023-07-20T09:10:06;23.30;99.90
12452;DHT22;6291;48.924;12.204;2023-07-20T09:15:11;23.60;99.90
12452;DHT22;6291;48.924;12.204;2023-07-20T09:20:16;23.70;99.90
12452;DHT22;6291;48.924;12.204;2023-07-20T09:25:27;24.60;99.90
12452;DHT22;6291;48.924;12.204;2023-07-20T09:30:32;24.00;99.90
12452;DHT22;6291;48.924;12.204;2023-07-20T09:35:36;23.90;99.90
12452;DHT22;6291;48.924;12.204;2023-07-20T09:40:46;24.10;99.90
12452;DHT22;6291;48.924;12.204;2023-07-20T09:45:57;24.70;99.90
12452;DHT22;6291;48.924;12.204;2023-07-20T09:51:01;24.70;99.90
12452;DHT22;6291;48.924;12.204;2023-07-20T09:56:08;24.90;99.90
12452;DHT22;6291;48.924;12.204;2023-07-20T10:01:13;27.10;99.90
12452;DHT22;6291;48.924;12.204;2023-07-20T10:06:24;26.10;99.90
12452;DHT22;6291;48.924;12.204;2023-07-20T10:11:30;24.30;99.90
12452;DHT22;6291;48.924;12.204;2023-07-20T10:16:35;24.40;99.90
12452;DHT22;6291;48.924;12.204;2023-07-20T10:21:42;25.40;99.90
12452;DHT22;6291;48.924;12.204;2023-07-20T10:26:54;25.40;99.90
12452;DHT22;6291;48.924;12.204;2023-07-20T10:31:58;27.90;99.90
12452;DHT22;6291;48.924;12.204;2023-07-20T10:37:01;28.20;99.90
12452;DHT22;6291;48.924;12.204;2023-07-20T10:42:08;26.60;99.90
12452;DHT22;6291;48.924;12.204;2023-07-20T10:47:13;26.50;99.90
12452;DHT22;6291;48.924;12.204;2023-07-20T10:52:16;26.90;99.90
12452;DHT22;6291;48.924;12.204;2023-07-20T10:57:31;26.80;99.90
12452;DHT22;6291;48.924;12.204;2023-07-20T11:02:42;26.80;99.90
12452;DHT22;6291;48.924;12.204;2023-07-20T11:07:46;28.40;99.90
12452;DHT22;6291;48.924;12.204;2023-07-20T11:13:21;27.20;99.90
12452;DHT22;6291;48.924;12.204;2023-07-20T11:18:26;25.30;99.90
12452;DHT22;6291;48.924;12.204;2023-07-20T11:23:29;25.70;99.90
12452;DHT22;6291;48.924;12.204;2023-07-20T11:28:36;26.20;99.90
12452;DHT22;6291;48.924;12.204;2023-07-20T11:33:39;27.00;99.90
12452;DHT22;6291;48.924;12.204;2023-07-20T11:38:43;25.80;99.90
12452;DHT22;6291;48.924;12.204;2023-07-20T11:43:48;26.00;99.90
12452;DHT22;6291;48.924;12.204;2023-07-20T11:48:56;28.00;99.90
12452;DHT22;6291;48.924;12.204;2023-07-20T11:54:01;25.90;99.90
12452;DHT22;6291;48.924;12.204;2023-07-20T11:59:06;25.30;99.90
12452;DHT22;6291;48.924;12.204;2023-07-20T12:04:10;29.80;99.90
12452;DHT22;6291;48.924;12.204;2023-07-20T12:09:14;27.40;99.90
12452;DHT22;6291;48.924;12.204;2023-07-20T12:14:20;29.30;99.90
12452;DHT22;6291;48.924;12.204;2023-07-20T12:19:25;27.80;99.90
12452;DHT22;6291;48.924;12.204;2023-07-20T12:24:29;27.00;99.90
12452;DHT22;6291;48.924;12.204;2023-07-20T12:29:34;27.50;99.90
12452;DHT22;6291;48.924;12.204;2023-07-20T12:34:39;26.80;99.90
12452;DHT22;6291;48.924;12.204;2023-07-20T12:39:42;25.80;99.90
12452;DHT22;6291;48.924;12.204;2023-07-20T12:44:50;27.80;99.90
12452;DHT22;6291;48.924;12.204;2023-07-20T12:49:54;30.00;99.90
12452;DHT22;6291;48.924;12.204;2023-07-20T12:55:00;28.60;99.90
12452;DHT22;6291;48.924;12.204;2023-07-20T13:00:08;27.50;99.90
12452;DHT22;6291;48.924;12.204;2023-07-20T13:05:13;26.70;99.90
12452;DHT22;6291;48.924;12.204;2023-07-20T13:10:18;26.50;99.90
12452;DHT22;6291;48.924;12.204;2023-07-20T13:15:27;25.30;99.90
12452;DHT22;6291;48.924;12.204;2023-07-20T13:20:32;26.50;99.90
12452;DHT22;6291;48.924;12.204;2023-07-20T13:25:36;29.90;99.90
12452;DHT22;6291;48.924;12.204;2023-07-20T13:30:41;32.50;89.50
12452;DHT22;6291;48.924;12.204;2023-07-20T13:35:47;30.70;97.30
12452;DHT22;6291;48.924;12.204;2023-07-20T13:40:51;30.40;96.30
12452;DHT22;6291;48.924;12.204;2023-07-20T13:45:55;27.40;99.90
12452;DHT22;6291;48.924;12.204;2023-07-20T13:50:59;27.70;99.90
12452;DHT22;6291;48.924;12.204;2023-07-20T13:56:02;26.80;99.90
12452;DHT22;6291;48.924;12.204;2023-07-20T14:01:10;30.60;94.10
12452;DHT22;6291;48.924;12.204;2023-07-20T14:06:14;31.80;89.00
12452;DHT22;6291;48.924;12.204;2023-07-20T14:11:20;32.10;81.10
12452;DHT22;6291;48.924;12.204;2023-07-20T14:16:28;29.20;94.70
12452;DHT22;6291;48.924;12.204;2023-07-20T14:21:33;27.40;99.90
12452;DHT22;6291;48.924;12.204;2023-07-20T14:26:39;27.00;99.90
12452;DHT22;6291;48.924;12.204;2023-07-20T14:31:46;29.10;97.50
12452;DHT22;6291;48.924;12.204;2023-07-20T14:36:54;27.50;99.90
12452;DHT22;6291;48.924;12.204;2023-07-20T14:41:58;27.50;99.90
12452;DHT22;6291;48.924;12.204;2023-07-20T14:47:03;27.40;99.90
12452;DHT22;6291;48.924;12.204;2023-07-20T14:52:16;32.00;74.80
12452;DHT22;6291;48.924;12.204;2023-07-20T14:57:19;29.80;91.50
12452;DHT22;6291;48.924;12.204;2023-07-20T15:02:26;29.80;91.00
12452;DHT22;6291;48.924;12.204;2023-07-20T15:07:30;30.60;86.30
12452;DHT22;6291;48.924;12.204;2023-07-20T15:12:33;30.50;86.70
12452;DHT22;6291;48.924;12.204;2023-07-20T15:17:39;31.60;77.90
12452;DHT22;6291;48.924;12.204;2023-07-20T15:22:43;31.80;74.20
12452;DHT22;6291;48.924;12.204;2023-07-20T15:27:50;33.10;65.40
12452;DHT22;6291;48.924;12.204;2023-07-20T15:32:56;29.60;90.90
12452;DHT22;6291;48.924;12.204;2023-07-20T15:38:03;28.50;94.20
12452;DHT22;6291;48.924;12.204;2023-07-20T15:43:06;28.00;96.60
12452;DHT22;6291;48.924;12.204;2023-07-20T15:48:14;27.40;98.70
12452;DHT22;6291;48.924;12.204;2023-07-20T15:53:17;27.20;99.40
12452;DHT22;6291;48.924;12.204;2023-07-20T15:58:21;28.60;94.50
12452;DHT22;6291;48.924;12.204;2023-07-20T16:03:26;28.80;92.90
12452;DHT22;6291;48.924;12.204;2023-07-20T16:08:39;27.70;95.60
12452;DHT22;6291;48.924;12.204;2023-07-20T16:13:42;27.10;99.50
12452;DHT22;6291;48.924;12.204;2023-07-20T16:18:48;27.80;96.80
12452;DHT22;6291;48.924;12.204;2023-07-20T16:23:52;27.10;98.30
12452;DHT22;6291;48.924;12.204;2023-07-20T16:28:56;27.10;99.10
12452;DHT22;6291;48.924;12.204;2023-07-20T16:34:04;27.30;98.20
12452;DHT22;6291;48.924;12.204;2023-07-20T16:39:08;26.30;99.90
12452;DHT22;6291;48.924;12.204;2023-07-20T16:44:15;26.00;99.90
12452;DHT22;6291;48.924;12.204;2023-07-20T16:49:20;26.40;99.90
12452;DHT22;6291;48.924;12.204;2023-07-20T16:54:23;26.90;99.40
12452;DHT22;6291;48.924;12.204;2023-07-20T16:59:28;26.40;99.90
12452;DHT22;6291;48.924;12.204;2023-07-20T17:04:33;25.70;99.90
12452;DHT22;6291;48.924;12.204;2023-07-20T17:09:36;25.70;99.90
12452;DHT22;6291;48.924;12.204;2023-07-20T17:14:39;26.00;99.90
12452;DHT22;6291;48.924;12.204;2023-07-20T17:19:44;26.00;99.90
12452;DHT22;6291;48.924;12.204;2023-07-20T17:24:47;26.20;99.90
12452;DHT22;6291;48.924;12.204;2023-07-20T17:29:54;26.40;99.90
12452;DHT22;6291;48.924;12.204;2023-07-20T17:35:02;25.80;99.90
12452;DHT22;6291;48.924;12.204;2023-07-20T17:40:10;25.20;99.90
12452;DHT22;6291;48.924;12.204;2023-07-20T17:45:16;24.90;99.90
12452;DHT22;6291;48.924;12.204;2023-07-20T17:50:21;24.80;99.90
12452;DHT22;6291;48.924;12.204;2023-07-20T17:55:25;25.00;99.90
12452;DHT22;6291;48.924;12.204;2023-07-20T18:00:28;24.90;99.90
12452;DHT22;6291;48.924;12.204;2023-07-20T18:05:36;24.80;99.90
12452;DHT22;6291;48.924;12.204;2023-07-20T18:10:40;24.60;99.90
12452;DHT22;6291;48.924;12.204;2023-07-20T18:15:43;24.30;99.90
12452;DHT22;6291;48.924;12.204;2023-07-20T18:20:48;24.10;99.90
12452;DHT22;6291;48.924;12.204;2023-07-20T18:25:51;23.90;99.90
12452;DHT22;6291;48.924;12.204;2023-07-20T18:30:55;23.70;99.90
12452;DHT22;6291;48.924;12.204;2023-07-20T18:36:00;23.60;99.90
12452;DHT22;6291;48.924;12.204;2023-07-20T18:41:03;23.50;99.90
12452;DHT22;6291;48.924;12.204;2023-07-20T18:46:06;23.30;99.90
12452;DHT22;6291;48.924;12.204;2023-07-20T18:51:11;23.10;99.90
12452;DHT22;6291;48.924;12.204;2023-07-20T18:56:15;23.00;99.90
12452;DHT22;6291;48.924;12.204;2023-07-20T19:01:18;22.80;99.90
12452;DHT22;6291;48.924;12.204;2023-07-20T19:06:23;22.80;99.90
12452;DHT22;6291;48.924;12.204;2023-07-20T19:11:27;22.40;99.90
12452;DHT22;6291;48.924;12.204;2023-07-20T19:16:33;22.20;99.90
12452;DHT22;6291;48.924;12.204;2023-07-20T19:21:38;22.00;99.90
12452;DHT22;6291;48.924;12.204;2023-07-20T19:26:42;21.80;99.90
12452;DHT22;6291;48.924;12.204;2023-07-20T19:31:45;21.70;99.90
12452;DHT22;6291;48.924;12.204;2023-07-20T19:36:50;21.70;99.90
12452;DHT22;6291;48.924;12.204;2023-07-20T19:41:53;21.30;99.90
12452;DHT22;6291;48.924;12.204;2023-07-20T19:46:57;21.10;99.90
12452;DHT22;6291;48.924;12.204;2023-07-20T19:52:04;21.00;99.90
12452;DHT22;6291;48.924;12.204;2023-07-20T19:57:07;21.00;99.90
12452;DHT22;6291;48.924;12.204;2023-07-20T20:02:14;20.80;99.90
12452;DHT22;6291;48.924;12.204;2023-07-20T20:07:20;21.00;99.90
12452;DHT22;6291;48.924;12.204;2023-07-20T20:12:23;20.70;99.90
12452;DHT22;6291;48.924;12.204;2023-07-20T20:17:27;20.70;99.90
12452;DHT22;6291;48.924;12.204;2023-07-20T20:22:32;20.40;99.90
12452;DHT22;6291;48.924;12.204;2023-07-20T20:27:35;20.50;99.90
12452;DHT22;6291;48.924;12.204;2023-07-20T20:32:41;20.60;99.90
12452;DHT22;6291;48.924;12.204;2023-07-20T20:37:47;20.50;99.90
12452;DHT22;6291;48.924;12.204;2023-07-20T20:42:50;20.50;99.90
12452;DHT22;6291;48.924;12.204;2023-07-20T20:47:53;20.30;99.90
12452;DHT22;6291;48.924;12.204;2023-07-20T20:53:04;20.10;99.90
12452;DHT22;6291;48.924;12.204;2023-07-20T20:58:08;20.00;99.90
12452;DHT22;6291;48.924;12.204;2023-07-20T21:03:12;19.80;99.90
12452;DHT22;6291;48.924;12.204;2023-07-20T21:08:17;19.80;99.90
12452;DHT22;6291;48.924;12.204;2023-07-20T21:13:20;19.60;99.90
12452;DHT22;6291;48.924;12.204;2023-07-20T21:18:23;19.50;99.90
12452;DHT22;6291;48.924;12.204;2023-07-20T21:23:28;19.40;99.90
12452;DHT22;6291;48.924;12.204;2023-07-20T21:28:32;19.40;99.90
12452;DHT22;6291;48.924;12.204;2023-07-20T21:33:36;19.40;99.90
12452;DHT22;6291;48.924;12.204;2023-07-20T21:38:41;19.50;99.90
12452;DHT22;6291;48.924;12.204;2023-07-20T21:43:45;19.50;99.90
12452;DHT22;6291;48.924;12.204;2023-07-20T21:48:48;19.50;99.90
12452;DHT22;6291;48.924;12.204;2023-07-20T21:53:53;19.40;99.90
12452;DHT22;6291;48.924;12.204;2023-07-20T21:58:56;19.40;99.90
12452;DHT22;6291;48.924;12.204;2023-07-20T22:04:00;19.30;99.90
12452;DHT22;6291;48.924;12.204;2023-07-20T22:09:05;19.40;99.90
12452;DHT22;6291;48.924;12.204;2023-07-20T22:14:08;19.10;99.90
12452;DHT22;6291;48.924;12.204;2023-07-20T22:19:12;18.80;99.90
12452;DHT22;6291;48.924;12.204;2023-07-20T22:24:23;18.80;99.90
12452;DHT22;6291;48.924;12.204;2023-07-20T22:29:26;18.60;99.90
12452;DHT22;6291;48.924;12.204;2023-07-20T22:34:33;18.60;99.90
12452;DHT22;6291;48.924;12.204;2023-07-20T22:39:37;18.40;99.90
12452;DHT22;6291;48.924;12.204;2023-07-20T22:44:41;18.40;99.90
12452;DHT22;6291;48.924;12.204;2023-07-20T22:49:44;18.30;99.90
12452;DHT22;6291;48.924;12.204;2023-07-20T22:54:49;18.30;99.90
12452;DHT22;6291;48.924;12.204;2023-07-20T22:59:52;18.30;99.90
12452;DHT22;6291;48.924;12.204;2023-07-20T23:04:56;18.10;99.90
12452;DHT22;6291;48.924;12.204;2023-07-20T23:10:01;18.10;99.90
12452;DHT22;6291;48.924;12.204;2023-07-20T23:15:06;17.90;99.90
12452;DHT22;6291;48.924;12.204;2023-07-20T23:20:11;17.90;99.90
12452;DHT22;6291;48.924;12.204;2023-07-20T23:25:22;17.90;99.90
12452;DHT22;6291;48.924;12.204;2023-07-20T23:30:25;17.80;99.90
12452;DHT22;6291;48.924;12.204;2023-07-20T23:35:29;17.70;99.90
12452;DHT22;6291;48.924;12.204;2023-07-20T23:40:35;17.80;99.90
12452;DHT22;6291;48.924;12.204;2023-07-20T23:45:38;17.90;99.90
12452;DHT22;6291;48.924;12.204;2023-07-20T23:50:42;17.80;99.90
12452;DHT22;6291;48.924;12.204;2023-07-20T23:55:47;17.60;99.90
